Terminal Aerodrome Forecast
Issued by NWS

Home | Current Version | Previous Version | Text Only | Print | Product List | Glossary On
Versions: 1 2 3 4 5 6 7 8 9 10 11 12 13 14 15 16 17 18
000
FTUS42 KTAE 011736
TAFVLD
TAF
KVLD 011736Z 0118/0218 20010KT P6SM BKN020
     FM020000 21008KT P6SM SCT030 BKN050
     FM020400 22008KT P6SM BKN015
     FM020900 31008KT P6SM VCSH BKN007
     FM021200 35009KT P6SM BKN015 OVC050=

USA.gov is the U.S. government's official web portal to all federal, state and local government web resources and services.